Time;durP1;ratioP1;P1;durP2;ratioP2;P2;SDS_P1;SDS_P2;PMS_P1;PMS_P2;Temp;Humidity;BMP_temperature;BMP_pressure;BME280_temperature;BME280_humidity;BME280_pressure;Samples;Min_cycle;Max_cycle;Signal;HPM_P1;HPM_P2
2024/02/05 00:00:43;;;;;;;3.25;2.80;;;9.70;99.90;;;;;;4974654;28;20030;-76
2024/02/05 00:03:09;;;;;;;3.03;2.53;;;9.70;99.90;;;;;;4973034;28;20531;-76
2024/02/05 00:05:36;;;;;;;3.60;2.97;;;9.80;99.90;;;;;;4974885;28;20035;-76
2024/02/05 00:08:03;;;;;;;2.67;2.30;;;9.90;99.90;;;;;;4971614;28;20042;-76
2024/02/05 00:10:29;;;;;;;2.85;2.30;;;10.00;99.90;;;;;;4971675;28;20464;-77
2024/02/05 00:12:55;;;;;;;3.28;2.22;;;10.10;99.90;;;;;;4973055;28;20030;-77
2024/02/05 00:15:21;;;;;;;3.58;2.20;;;10.20;99.90;;;;;;4974134;28;20027;-76
2024/02/05 00:17:47;;;;;;;3.50;2.03;;;10.20;99.90;;;;;;4973995;28;20113;-76
2024/02/05 00:20:13;;;;;;;3.55;1.80;;;10.30;99.90;;;;;;4974226;28;20069;-76
2024/02/05 00:22:39;;;;;;;2.42;1.80;;;10.40;99.90;;;;;;4973664;28;20039;-76
2024/02/05 00:25:05;;;;;;;1.58;1.33;;;10.50;99.90;;;;;;4973922;28;20461;-76
2024/02/05 00:27:32;;;;;;;3.45;1.30;;;10.50;99.90;;;;;;4972181;28;20041;-71
2024/02/05 00:29:57;;;;;;;2.95;0.70;;;10.50;99.90;;;;;;4972302;28;20830;-71
2024/02/05 00:32:24;;;;;;;2.42;1.27;;;10.60;99.90;;;;;;4972375;28;20037;-71
2024/02/05 00:34:50;;;;;;;2.72;1.00;;;10.60;99.90;;;;;;4974447;28;20039;-71
2024/02/05 00:37:17;;;;;;;1.65;1.00;;;10.70;99.90;;;;;;4969676;28;20578;-72
2024/02/05 00:39:43;;;;;;;0.95;0.70;;;10.80;99.90;;;;;;4974900;28;20033;-72
2024/02/05 00:42:08;;;;;;;0.75;0.60;;;10.90;99.90;;;;;;4971153;28;20023;-72
2024/02/05 00:44:34;;;;;;;0.75;0.52;;;10.90;99.90;;;;;;4974459;28;20379;-72
2024/02/05 00:47:02;;;;;;;2.60;0.75;;;10.80;99.90;;;;;;4972656;28;20583;-72
2024/02/05 00:49:28;;;;;;;0.90;0.57;;;10.80;99.90;;;;;;4974340;28;20034;-72
2024/02/05 00:51:54;;;;;;;1.30;0.70;;;10.80;99.90;;;;;;4972837;28;20034;-72
2024/02/05 00:54:20;;;;;;;1.10;0.60;;;10.80;99.90;;;;;;4973344;28;20046;-72
2024/02/05 00:56:45;;;;;;;1.25;0.80;;;10.90;99.90;;;;;;4973571;28;20031;-72
2024/02/05 00:59:11;;;;;;;1.00;0.85;;;11.00;99.90;;;;;;4972328;28;20058;-72
2024/02/05 01:01:37;;;;;;;0.63;0.63;;;10.90;99.90;;;;;;4972748;28;20023;-72
2024/02/05 01:04:03;;;;;;;1.02;0.80;;;10.90;99.90;;;;;;4973567;28;20045;-72
2024/02/05 01:06:28;;;;;;;0.73;0.73;;;10.80;99.90;;;;;;4972934;28;20034;-72
2024/02/05 01:08:54;;;;;;;1.73;0.70;;;10.90;99.90;;;;;;4971168;28;20048;-76
2024/02/05 01:11:20;;;;;;;0.80;0.70;;;10.90;99.90;;;;;;4971631;28;20066;-77
2024/02/05 01:13:46;;;;;;;2.17;1.00;;;11.00;99.90;;;;;;4971764;28;20033;-77
2024/02/05 01:16:12;;;;;;;1.05;0.60;;;11.00;99.90;;;;;;4972546;28;20395;-77
2024/02/05 01:18:37;;;;;;;1.38;0.90;;;11.00;99.90;;;;;;4968205;28;20035;-76
2024/02/05 01:21:04;;;;;;;3.10;1.08;;;11.00;99.90;;;;;;4972235;28;20030;-77
2024/02/05 01:23:31;;;;;;;1.23;0.73;;;11.00;99.90;;;;;;4972160;28;20030;-76
2024/02/05 01:25:57;;;;;;;0.98;0.77;;;11.10;99.90;;;;;;4972437;28;20038;-77
2024/02/05 01:28:23;;;;;;;0.73;0.73;;;11.10;99.90;;;;;;4972399;28;20530;-76
2024/02/05 01:30:49;;;;;;;2.65;1.10;;;11.10;99.90;;;;;;4971769;28;20041;-77
2024/02/05 01:33:15;;;;;;;1.20;1.10;;;11.20;99.90;;;;;;4973221;28;20026;-77
2024/02/05 01:35:41;;;;;;;1.00;0.88;;;11.20;99.90;;;;;;4969609;28;20027;-77
2024/02/05 01:38:06;;;;;;;0.93;0.82;;;11.20;99.90;;;;;;4971946;28;20033;-77
2024/02/05 01:40:34;;;;;;;1.20;0.90;;;11.10;99.90;;;;;;4972868;28;20085;-76
2024/02/05 01:43:00;;;;;;;0.98;0.85;;;11.30;99.90;;;;;;4970891;28;20113;-77
2024/02/05 01:45:26;;;;;;;1.98;0.90;;;11.30;99.90;;;;;;4974353;28;20637;-77
2024/02/05 01:47:52;;;;;;;0.93;0.90;;;11.40;99.90;;;;;;4972675;28;20137;-76
2024/02/05 01:50:19;;;;;;;1.42;1.05;;;11.40;99.90;;;;;;4972103;28;20328;-76
2024/02/05 01:52:48;;;;;;;1.13;0.95;;;11.40;99.90;;;;;;4972119;28;20030;-77
2024/02/05 01:55:19;;;;;;;1.92;1.30;;;11.40;99.90;;;;;;4971367;28;20429;-77
2024/02/05 01:57:48;;;;;;;5.93;1.60;;;11.50;99.90;;;;;;4969821;28;20033;-76
2024/02/05 02:00:14;;;;;;;2.92;0.80;;;11.50;99.90;;;;;;4970367;28;20557;-77
2024/02/05 02:02:41;;;;;;;1.00;0.90;;;11.50;99.90;;;;;;4973230;28;20125;-77
2024/02/05 02:05:07;;;;;;;0.77;0.77;;;11.40;99.90;;;;;;4971454;28;20030;-77
2024/02/05 02:07:33;;;;;;;1.60;1.10;;;11.50;99.90;;;;;;4969889;28;20109;-76
2024/02/05 02:10:00;;;;;;;1.10;0.88;;;11.50;99.90;;;;;;4971785;28;20125;-76
2024/02/05 02:12:26;;;;;;;0.73;0.73;;;11.50;99.90;;;;;;4972486;28;20034;-76
2024/02/05 02:14:52;;;;;;;2.28;0.65;;;11.50;99.90;;;;;;4971065;28;20073;-77
2024/02/05 02:17:21;;;;;;;0.68;0.68;;;11.50;99.90;;;;;;4971912;28;20035;-77
2024/02/05 02:19:48;;;;;;;0.80;0.68;;;11.50;99.90;;;;;;4972787;28;20035;-77
2024/02/05 02:22:39;;;;;;;0.50;0.50;;;11.60;99.90;;;;;;4970481;28;20027;-76
2024/02/05 02:25:06;;;;;;;1.48;0.80;;;11.50;99.90;;;;;;4971976;28;20031;-72
2024/02/05 02:27:33;;;;;;;1.38;0.60;;;11.50;99.90;;;;;;4971712;28;20122;-72
2024/02/05 02:29:59;;;;;;;0.98;0.98;;;11.50;99.90;;;;;;4971822;28;20058;-69
2024/02/05 02:32:34;;;;;;;0.90;0.80;;;11.50;99.90;;;;;;4974762;28;20734;-70
2024/02/05 02:35:05;;;;;;;0.98;0.70;;;11.40;99.90;;;;;;4975786;28;20050;-72
2024/02/05 02:37:38;;;;;;;1.27;0.70;;;11.40;99.90;;;;;;4975098;28;20546;-72
2024/02/05 02:40:09;;;;;;;1.70;0.40;;;11.40;99.90;;;;;;4975743;28;20165;-70
2024/02/05 02:42:41;;;;;;;0.47;0.47;;;11.40;99.90;;;;;;4975629;28;20030;-70
2024/02/05 02:45:12;;;;;;;0.70;0.70;;;11.50;99.90;;;;;;4975652;28;20041;-72
2024/02/05 02:47:37;;;;;;;0.88;0.80;;;11.50;99.90;;;;;;4989514;28;20031;-72
2024/02/05 02:50:04;;;;;;;1.63;1.52;;;11.50;99.90;;;;;;4976059;28;20030;-72
2024/02/05 02:52:30;;;;;;;0.50;0.50;;;11.40;99.90;;;;;;4974958;28;20577;-72
2024/02/05 02:54:55;;;;;;;0.70;0.70;;;11.30;99.90;;;;;;4977003;28;20113;-72
2024/02/05 02:57:21;;;;;;;0.63;0.60;;;11.40;99.90;;;;;;4974461;28;20042;-72
2024/02/05 02:59:47;;;;;;;2.08;0.73;;;11.40;99.90;;;;;;4976652;28;20026;-72
2024/02/05 03:02:13;;;;;;;0.60;0.60;;;11.50;99.90;;;;;;4974988;28;20055;-70
2024/02/05 03:04:39;;;;;;;0.80;0.80;;;11.60;99.90;;;;;;4976897;28;20058;-70
2024/02/05 03:07:04;;;;;;;2.17;0.82;;;11.60;99.90;;;;;;4975066;28;20130;-69
2024/02/05 03:09:30;;;;;;;0.80;0.80;;;11.60;99.90;;;;;;4975813;28;20051;-69
2024/02/05 03:11:56;;;;;;;0.90;0.73;;;11.60;99.90;;;;;;4975053;28;20029;-70
2024/02/05 03:14:25;;;;;;;0.93;0.80;;;11.60;99.90;;;;;;4975413;28;20426;-69
2024/02/05 03:16:51;;;;;;;1.00;0.90;;;11.60;99.90;;;;;;4976327;28;20333;-69
2024/02/05 03:19:17;;;;;;;0.70;0.70;;;11.50;99.90;;;;;;4973860;28;20121;-69
2024/02/05 03:21:43;;;;;;;1.13;1.00;;;11.60;99.90;;;;;;4969551;28;20633;-69
2024/02/05 03:24:09;;;;;;;2.72;0.73;;;11.60;99.90;;;;;;4975537;28;20035;-70
2024/02/05 03:26:35;;;;;;;0.70;0.70;;;11.40;99.90;;;;;;4975286;28;20271;-70
2024/02/05 03:29:00;;;;;;;1.85;0.82;;;11.40;99.90;;;;;;4975449;28;20397;-69
2024/02/05 03:31:26;;;;;;;0.60;0.60;;;11.50;99.90;;;;;;4975082;28;20249;-70
2024/02/05 03:33:52;;;;;;;1.10;0.80;;;11.50;99.90;;;;;;4975201;28;21356;-70
2024/02/05 03:36:18;;;;;;;2.55;0.73;;;11.50;99.90;;;;;;4973899;28;20031;-70
2024/02/05 03:38:43;;;;;;;0.55;0.50;;;11.60;99.90;;;;;;4974466;28;20031;-70
2024/02/05 03:41:09;;;;;;;0.63;0.63;;;11.60;99.90;;;;;;4969771;28;20147;-70
2024/02/05 03:43:35;;;;;;;0.73;0.70;;;11.60;99.90;;;;;;4973782;28;20084;-70
2024/02/05 03:46:01;;;;;;;0.60;0.60;;;11.60;99.90;;;;;;4972802;28;20038;-70
2024/02/05 03:48:27;;;;;;;1.00;0.73;;;11.60;99.90;;;;;;4976376;28;20041;-70
2024/02/05 03:50:52;;;;;;;2.28;0.57;;;11.60;99.90;;;;;;4971644;28;20039;-70
2024/02/05 03:53:18;;;;;;;0.40;0.40;;;11.60;99.90;;;;;;4974788;28;20038;-70
2024/02/05 03:55:44;;;;;;;1.70;0.60;;;11.60;99.90;;;;;;4972139;28;20683;-70
2024/02/05 03:58:10;;;;;;;0.52;0.50;;;11.70;99.90;;;;;;4974341;28;20037;-70
2024/02/05 04:00:36;;;;;;;0.50;0.40;;;11.70;99.90;;;;;;4972724;28;20842;-70
2024/02/05 04:03:02;;;;;;;2.30;0.43;;;11.60;99.90;;;;;;4974268;28;20043;-70
2024/02/05 04:05:31;;;;;;;1.13;0.38;;;11.70;99.90;;;;;;4973893;28;20077;-70
2024/02/05 04:07:57;;;;;;;0.73;0.50;;;11.80;99.90;;;;;;4974312;28;20041;-70
2024/02/05 04:10:23;;;;;;;1.20;0.55;;;11.70;99.90;;;;;;4971907;28;20027;-70
2024/02/05 04:12:49;;;;;;;0.40;0.40;;;11.70;99.90;;;;;;4974692;28;20853;-70
2024/02/05 04:15:15;;;;;;;0.22;0.22;;;11.70;99.90;;;;;;4972587;28;20029;-71
2024/02/05 04:17:41;;;;;;;0.68;0.40;;;11.70;99.90;;;;;;4975683;28;20038;-70
2024/02/05 04:20:07;;;;;;;2.38;0.38;;;11.70;99.90;;;;;;4972155;28;20143;-70
2024/02/05 04:22:33;;;;;;;1.45;0.80;;;11.70;99.90;;;;;;4975123;28;20041;-70
2024/02/05 04:24:59;;;;;;;0.68;0.30;;;11.60;99.90;;;;;;4973615;28;20892;-70
2024/02/05 04:27:24;;;;;;;1.25;0.52;;;11.70;99.90;;;;;;4989596;28;20062;-70
2024/02/05 04:29:52;;;;;;;3.90;0.65;;;11.70;99.90;;;;;;4973573;28;20037;-70
2024/02/05 04:32:18;;;;;;;0.40;0.38;;;11.70;99.90;;;;;;4973067;28;20042;-73
2024/02/05 04:34:43;;;;;;;0.55;0.30;;;11.70;99.90;;;;;;4973735;28;20041;-74
2024/02/05 04:37:09;;;;;;;1.83;0.55;;;11.70;99.90;;;;;;4972001;28;20101;-74
2024/02/05 04:39:35;;;;;;;1.08;0.28;;;11.70;99.90;;;;;;4972512;28;20138;-74
2024/02/05 04:42:01;;;;;;;0.70;0.35;;;11.60;99.90;;;;;;4972811;28;20027;-74
2024/02/05 04:44:26;;;;;;;1.27;0.52;;;11.50;99.90;;;;;;4973764;28;20026;-74
2024/02/05 04:46:52;;;;;;;0.20;0.20;;;11.50;99.90;;;;;;4971862;28;20027;-74
2024/02/05 04:49:18;;;;;;;1.92;0.47;;;11.50;99.90;;;;;;4972092;28;20038;-74
2024/02/05 04:51:48;;;;;;;0.65;0.40;;;11.60;99.90;;;;;;4971868;28;20062;-74
2024/02/05 04:54:14;;;;;;;0.52;0.40;;;11.60;99.90;;;;;;4972458;28;20041;-74
2024/02/05 04:56:40;;;;;;;2.28;0.40;;;11.70;99.90;;;;;;4972110;28;20027;-74
2024/02/05 04:59:05;;;;;;;0.90;0.30;;;11.60;99.90;;;;;;4970768;28;20397;-74
2024/02/05 05:01:31;;;;;;;1.13;0.40;;;11.60;99.90;;;;;;4971765;28;20502;-74
2024/02/05 05:03:57;;;;;;;0.63;0.30;;;11.60;99.90;;;;;;4972961;28;20117;-73
2024/02/05 05:06:23;;;;;;;0.70;0.22;;;11.60;99.90;;;;;;4971848;28;20039;-73
2024/02/05 05:08:49;;;;;;;0.10;0.10;;;11.70;99.90;;;;;;4972139;28;20045;-73
2024/02/05 05:11:22;;;;;;;0.10;0.10;;;11.60;99.90;;;;;;4971463;28;20404;-74
2024/02/05 05:13:49;;;;;;;2.47;0.30;;;11.70;99.90;;;;;;4970448;28;20027;-74
2024/02/05 05:16:16;;;;;;;0.43;0.38;;;11.60;99.90;;;;;;4972254;28;20038;-74
2024/02/05 05:18:42;;;;;;;1.00;0.32;;;11.60;99.90;;;;;;4971927;28;20049;-69
2024/02/05 05:21:07;;;;;;;0.20;0.20;;;11.60;99.90;;;;;;4970972;28;20034;-69
2024/02/05 05:23:33;;;;;;;0.40;0.40;;;11.50;99.90;;;;;;4972129;28;20125;-69
2024/02/05 05:25:59;;;;;;;0.10;0.10;;;11.60;99.90;;;;;;4971849;28;20057;-69
2024/02/05 05:28:25;;;;;;;0.47;0.47;;;11.60;99.90;;;;;;4972862;28;20056;-69
2024/02/05 05:30:51;;;;;;;0.20;0.20;;;11.60;99.90;;;;;;4971333;28;20467;-69
2024/02/05 05:33:16;;;;;;;0.43;0.30;;;11.60;99.90;;;;;;4969043;28;20086;-74
2024/02/05 05:35:42;;;;;;;0.80;0.13;;;11.60;99.90;;;;;;4971567;28;20026;-74
2024/02/05 05:38:08;;;;;;;0.25;0.20;;;11.50;99.90;;;;;;4972549;28;20029;-74
2024/02/05 05:40:33;;;;;;;0.30;0.30;;;11.50;99.90;;;;;;4970201;28;20114;-74
2024/02/05 05:42:59;;;;;;;0.38;0.20;;;11.50;99.90;;;;;;4972493;28;20452;-74
2024/02/05 05:45:27;;;;;;;0.45;0.30;;;11.40;99.90;;;;;;4970895;28;20089;-74
2024/02/05 05:47:53;;;;;;;0.47;0.30;;;11.40;99.90;;;;;;4972004;28;20040;-74
2024/02/05 05:50:18;;;;;;;0.13;0.13;;;11.30;99.90;;;;;;4970913;28;20491;-74
2024/02/05 05:52:44;;;;;;;5.53;0.65;;;11.30;99.90;;;;;;4973057;28;20465;-74
2024/02/05 05:55:10;;;;;;;0.35;0.35;;;11.30;99.90;;;;;;4971568;28;20038;-74
2024/02/05 05:57:36;;;;;;;0.70;0.40;;;11.30;99.90;;;;;;4970343;28;20034;-74
2024/02/05 06:00:05;;;;;;;2.05;0.40;;;11.30;99.90;;;;;;4971167;28;20035;-74
2024/02/05 06:02:31;;;;;;;1.25;0.38;;;11.40;99.90;;;;;;4971794;28;20065;-74
2024/02/05 06:04:56;;;;;;;2.03;0.50;;;11.30;99.90;;;;;;4970556;28;20382;-74
2024/02/05 06:07:22;;;;;;;0.70;0.50;;;11.40;99.90;;;;;;4972880;28;20030;-74
2024/02/05 06:09:48;;;;;;;1.73;0.70;;;11.40;99.90;;;;;;4970154;28;20022;-74
2024/02/05 06:12:15;;;;;;;0.40;0.30;;;11.30;99.90;;;;;;4972147;28;20125;-74
2024/02/05 06:14:43;;;;;;;1.95;0.63;;;11.30;99.90;;;;;;4971245;28;20026;-74
2024/02/05 06:17:09;;;;;;;1.30;0.80;;;11.30;99.90;;;;;;4972355;28;20030;-74
2024/02/05 06:19:34;;;;;;;0.63;0.57;;;11.30;99.90;;;;;;4968589;28;20045;-74
2024/02/05 06:22:00;;;;;;;2.17;0.85;;;11.40;99.90;;;;;;4972891;28;20626;-74
2024/02/05 06:24:26;;;;;;;0.63;0.63;;;11.30;99.90;;;;;;4970044;28;20785;-74
2024/02/05 06:26:52;;;;;;;0.50;0.50;;;11.30;99.90;;;;;;4972726;28;20034;-74
2024/02/05 06:29:17;;;;;;;0.93;0.60;;;11.40;99.90;;;;;;4969397;28;20038;-74
2024/02/05 06:31:43;;;;;;;1.40;0.32;;;11.40;99.90;;;;;;4972823;28;20037;-74
2024/02/05 06:34:09;;;;;;;0.80;0.55;;;11.40;99.90;;;;;;4971449;28;20437;-70
2024/02/05 06:36:34;;;;;;;0.82;0.60;;;11.50;99.90;;;;;;4972258;28;20098;-69
2024/02/05 06:39:00;;;;;;;0.63;0.60;;;11.50;99.90;;;;;;4969787;28;20042;-69
2024/02/05 06:41:26;;;;;;;2.63;0.68;;;11.50;99.90;;;;;;4972109;28;20208;-70
2024/02/05 06:43:52;;;;;;;0.63;0.63;;;11.40;99.90;;;;;;4970448;28;20035;-69
2024/02/05 06:46:18;;;;;;;0.82;0.68;;;11.40;99.90;;;;;;4970897;28;20042;-69
2024/02/05 06:48:44;;;;;;;1.80;0.82;;;11.40;99.90;;;;;;4971979;28;20037;-69
2024/02/05 06:51:10;;;;;;;2.05;0.50;;;11.40;99.90;;;;;;4971884;28;20406;-69
2024/02/05 06:53:35;;;;;;;1.85;0.85;;;11.40;99.90;;;;;;4970493;28;20089;-69
2024/02/05 06:56:01;;;;;;;0.98;0.77;;;11.40;99.90;;;;;;4970929;28;20046;-70
2024/02/05 06:58:28;;;;;;;0.90;0.77;;;11.30;99.90;;;;;;4971448;28;20046;-70
2024/02/05 07:00:54;;;;;;;7.47;0.80;;;11.40;99.90;;;;;;4970486;28;20046;-69
2024/02/05 07:03:21;;;;;;;0.80;0.80;;;11.30;99.90;;;;;;4971821;28;20031;-70
2024/02/05 07:05:47;;;;;;;2.70;1.52;;;11.20;99.90;;;;;;4969021;28;20045;-70
2024/02/05 07:08:12;;;;;;;11.60;9.68;;;11.30;99.90;;;;;;4969069;28;20022;-70
2024/02/05 07:10:38;;;;;;;2.05;1.60;;;11.20;99.90;;;;;;4969022;28;20122;-70
2024/02/05 07:13:04;;;;;;;6.35;4.28;;;11.30;99.90;;;;;;4969571;28;20034;-63
2024/02/05 07:15:34;;;;;;;3.63;2.42;;;11.30;99.90;;;;;;4946834;28;20522;-70
2024/02/05 07:17:59;;;;;;;6.82;3.03;;;11.20;99.90;;;;;;4969004;28;20042;-69
2024/02/05 07:20:25;;;;;;;3.50;1.60;;;11.30;99.90;;;;;;4973177;28;20041;-68
2024/02/05 07:22:53;;;;;;;4.22;1.85;;;11.40;99.90;;;;;;4973945;28;20116;-68
2024/02/05 07:25:19;;;;;;;3.20;1.15;;;11.30;99.90;;;;;;4972887;28;20851;-68
2024/02/05 07:27:45;;;;;;;3.25;2.30;;;11.30;99.90;;;;;;4969858;28;20038;-70
2024/02/05 07:30:11;;;;;;;7.85;2.47;;;11.30;99.90;;;;;;4972657;28;20035;-68
2024/02/05 07:32:37;;;;;;;6.28;1.65;;;11.30;99.90;;;;;;4974171;28;20033;-74
2024/02/05 07:35:03;;;;;;;5.35;2.30;;;11.30;99.90;;;;;;4983104;28;20027;-68
2024/02/05 07:37:29;;;;;;;4.47;1.73;;;11.30;99.90;;;;;;4974502;28;20042;-69
2024/02/05 07:39:55;;;;;;;4.45;2.17;;;11.40;99.90;;;;;;4973829;28;20034;-69
2024/02/05 07:42:21;;;;;;;5.45;2.15;;;11.40;99.90;;;;;;4973884;28;20058;-69
2024/02/05 07:44:47;;;;;;;7.32;2.35;;;11.40;99.90;;;;;;4974202;28;20604;-73
2024/02/05 07:47:12;;;;;;;3.47;1.77;;;11.40;99.90;;;;;;4974613;28;20041;-74
2024/02/05 07:49:40;;;;;;;5.55;3.15;;;11.40;99.90;;;;;;4971821;28;20035;-69
2024/02/05 07:52:06;;;;;;;8.20;3.05;;;11.40;99.90;;;;;;4973592;28;20030;-74
2024/02/05 07:54:32;;;;;;;3.28;2.33;;;11.40;99.90;;;;;;4975628;28;20548;-74
2024/02/05 07:57:02;;;;;;;4.38;1.85;;;11.40;99.90;;;;;;4976778;28;20030;-73
2024/02/05 07:59:28;;;;;;;5.45;1.58;;;11.40;99.90;;;;;;4971010;28;20121;-74
2024/02/05 08:01:54;;;;;;;10.57;3.13;;;11.40;99.90;;;;;;4975628;28;20521;-74
2024/02/05 08:04:20;;;;;;;9.15;3.20;;;11.30;99.90;;;;;;4973527;28;20056;-74
2024/02/05 08:06:46;;;;;;;8.02;2.78;;;11.30;99.90;;;;;;4975073;28;20040;-74
2024/02/05 08:09:12;;;;;;;4.55;2.92;;;11.20;99.90;;;;;;4971910;28;20117;-74
2024/02/05 08:11:39;;;;;;;7.28;2.20;;;11.10;99.90;;;;;;4972911;28;20073;-74
2024/02/05 08:14:06;;;;;;;5.88;2.13;;;11.10;99.90;;;;;;4970364;28;20636;-74
2024/02/05 08:16:32;;;;;;;2.88;1.50;;;11.20;99.90;;;;;;4974440;28;20059;-73
2024/02/05 08:18:58;;;;;;;6.10;2.28;;;11.20;99.90;;;;;;4972930;28;20148;-74
2024/02/05 08:21:24;;;;;;;6.80;2.10;;;11.20;99.90;;;;;;4975222;28;20138;-74
2024/02/05 08:23:51;;;;;;;7.43;1.98;;;11.20;99.90;;;;;;4973833;28;20252;-73
2024/02/05 08:26:18;;;;;;;6.15;2.40;;;11.20;99.90;;;;;;4973404;28;20088;-74
2024/02/05 08:28:44;;;;;;;5.57;1.77;;;11.20;99.90;;;;;;4972352;28;20041;-74
2024/02/05 08:31:10;;;;;;;8.73;3.13;;;11.20;99.90;;;;;;4974221;28;20035;-74
2024/02/05 08:33:35;;;;;;;4.35;2.25;;;11.30;99.90;;;;;;4970744;28;20727;-74
2024/02/05 08:36:01;;;;;;;7.28;2.90;;;11.30;99.90;;;;;;4973120;28;20053;-74
2024/02/05 08:38:27;;;;;;;5.15;2.50;;;11.30;99.90;;;;;;4972931;28;20055;-74
2024/02/05 08:40:53;;;;;;;3.20;1.83;;;11.40;99.90;;;;;;4974776;28;20515;-74
2024/02/05 08:43:19;;;;;;;7.18;2.30;;;11.30;99.90;;;;;;4971998;28;20046;-73
2024/02/05 08:45:45;;;;;;;6.18;2.10;;;11.20;99.90;;;;;;4974037;28;20117;-73
2024/02/05 08:48:10;;;;;;;12.55;3.20;;;11.20;99.90;;;;;;4972263;28;20046;-73
2024/02/05 08:50:38;;;;;;;7.38;2.95;;;11.20;99.90;;;;;;4974349;28;20045;-72
2024/02/05 08:53:05;;;;;;;11.40;2.80;;;11.10;99.90;;;;;;4973332;28;20042;-73
2024/02/05 08:55:32;;;;;;;7.45;2.75;;;11.10;99.90;;;;;;4975709;28;20137;-73
2024/02/05 08:57:57;;;;;;;8.05;2.40;;;11.00;99.90;;;;;;4972834;28;20490;-73
2024/02/05 09:00:23;;;;;;;8.13;3.13;;;11.10;99.90;;;;;;4973710;28;20034;-73
2024/02/05 09:02:50;;;;;;;12.65;3.42;;;11.20;99.90;;;;;;4970616;28;20042;-73
2024/02/05 09:05:16;;;;;;;11.38;4.10;;;11.10;99.90;;;;;;4973937;28;20109;-73
2024/02/05 09:07:42;;;;;;;11.75;3.17;;;11.10;99.90;;;;;;4972540;28;20034;-73
2024/02/05 09:10:08;;;;;;;6.07;2.58;;;10.90;99.90;;;;;;4972394;28;20387;-73
2024/02/05 09:12:34;;;;;;;10.93;3.30;;;11.00;99.90;;;;;;4973059;28;20070;-73
2024/02/05 09:15:01;;;;;;;8.05;2.67;;;10.90;99.90;;;;;;4972056;28;20038;-73
2024/02/05 09:17:27;;;;;;;6.43;2.97;;;11.00;99.90;;;;;;4973166;28;20062;-73
2024/02/05 09:19:52;;;;;;;14.82;4.00;;;11.00;99.90;;;;;;4972474;28;20039;-73
2024/02/05 09:22:18;;;;;;;11.63;3.80;;;11.00;99.90;;;;;;4973296;28;20030;-73
2024/02/05 09:24:45;;;;;;;6.53;2.42;;;10.90;99.90;;;;;;4973380;28;20414;-73
2024/02/05 09:27:11;;;;;;;6.88;2.65;;;10.90;99.90;;;;;;4972137;28;20407;-73
2024/02/05 09:29:37;;;;;;;17.27;3.42;;;11.00;99.90;;;;;;4972272;28;20054;-73
2024/02/05 09:32:05;;;;;;;13.80;4.43;;;11.10;99.90;;;;;;4973285;28;20042;-73
2024/02/05 09:34:31;;;;;;;10.82;3.03;;;11.10;99.90;;;;;;4973195;28;20367;-73
2024/02/05 09:36:57;;;;;;;9.75;3.03;;;11.10;99.90;;;;;;4973701;28;20037;-73
2024/02/05 09:39:23;;;;;;;6.28;2.58;;;11.20;99.90;;;;;;4971122;28;20706;-73
2024/02/05 09:41:52;;;;;;;13.73;3.45;;;11.20;99.90;;;;;;4973128;28;20545;-73
2024/02/05 09:44:19;;;;;;;7.40;2.83;;;11.30;99.90;;;;;;4969098;28;20743;-73
2024/02/05 09:46:51;;;;;;;6.55;2.08;;;11.20;99.90;;;;;;4971016;28;20035;-72
2024/02/05 09:49:18;;;;;;;8.52;3.53;;;11.20;99.90;;;;;;4972147;28;20450;-72
2024/02/05 09:51:47;;;;;;;6.60;2.20;;;11.30;99.90;;;;;;4972664;28;20034;-72
2024/02/05 09:54:14;;;;;;;9.40;2.70;;;11.40;99.90;;;;;;4973297;28;20038;-72
2024/02/05 09:56:41;;;;;;;6.13;2.25;;;11.40;99.90;;;;;;4971741;28;20557;-72
2024/02/05 09:59:07;;;;;;;9.00;3.40;;;11.40;99.90;;;;;;4971863;28;20646;-72
2024/02/05 10:01:34;;;;;;;13.57;2.53;;;11.40;99.90;;;;;;4971684;28;20133;-72
2024/02/05 10:04:01;;;;;;;10.88;2.08;;;11.50;99.90;;;;;;4970235;28;20028;-73
2024/02/05 10:06:33;;;;;;;9.32;2.70;;;11.50;99.90;;;;;;4972960;28;20904;-74
2024/02/05 10:09:10;;;;;;;14.43;3.92;;;11.50;99.90;;;;;;4970235;28;20785;-72
2024/02/05 10:11:43;;;;;;;12.07;3.65;;;11.50;99.90;;;;;;4972160;28;20054;-73
2024/02/05 10:14:10;;;;;;;11.43;3.03;;;11.40;99.90;;;;;;4971691;28;20113;-72
2024/02/05 10:16:39;;;;;;;13.73;3.38;;;11.60;99.90;;;;;;4974597;28;20050;-72
2024/02/05 10:19:06;;;;;;;13.15;3.70;;;11.50;99.90;;;;;;4969846;28;20652;-71
2024/02/05 10:21:33;;;;;;;9.55;2.60;;;11.40;99.90;;;;;;4976022;28;20038;-72
2024/02/05 10:23:59;;;;;;;13.93;4.00;;;11.40;99.90;;;;;;4972659;28;20062;-72
2024/02/05 10:26:25;;;;;;;13.77;2.83;;;11.40;99.90;;;;;;4970866;28;20058;-72
2024/02/05 10:28:51;;;;;;;10.82;3.22;;;11.40;99.90;;;;;;4971889;28;20051;-72
2024/02/05 10:31:17;;;;;;;9.85;3.03;;;11.40;99.90;;;;;;4973712;28;20027;-73
2024/02/05 10:33:44;;;;;;;6.18;2.35;;;11.50;99.90;;;;;;4969795;28;20066;-72
2024/02/05 10:36:11;;;;;;;10.18;2.55;;;11.60;99.90;;;;;;4971846;28;20042;-72
2024/02/05 10:38:37;;;;;;;10.57;2.63;;;11.70;99.90;;;;;;4975117;28;20023;-72
2024/02/05 10:41:07;;;;;;;11.13;2.55;;;11.50;99.90;;;;;;4975082;28;20178;-71
2024/02/05 10:43:33;;;;;;;13.75;2.50;;;11.40;99.90;;;;;;4974352;28;20686;-72
2024/02/05 10:45:59;;;;;;;12.15;3.53;;;11.30;99.90;;;;;;4976671;28;20043;-71
2024/02/05 10:48:25;;;;;;;11.82;2.72;;;11.30;99.90;;;;;;4973620;28;20038;-72
2024/02/05 10:50:52;;;;;;;8.65;3.53;;;11.30;99.90;;;;;;4973133;28;20035;-72
2024/02/05 10:53:18;;;;;;;13.52;2.97;;;11.30;99.90;;;;;;4974346;28;20046;-72
2024/02/05 10:55:45;;;;;;;8.75;2.55;;;11.30;99.90;;;;;;4976906;28;20034;-73
2024/02/05 10:58:13;;;;;;;15.95;3.25;;;11.20;99.90;;;;;;4975171;28;20029;-73
2024/02/05 11:00:43;;;;;;;10.27;2.90;;;11.30;99.90;;;;;;4976651;28;20054;-74
2024/02/05 11:03:17;;;;;;;17.52;3.53;;;11.30;99.90;;;;;;4978012;28;20050;-73
2024/02/05 11:05:46;;;;;;;7.20;2.67;;;11.40;99.90;;;;;;4975194;28;20034;-72
2024/02/05 11:08:15;;;;;;;12.73;3.33;;;11.50;99.90;;;;;;4974017;28;20546;-68
2024/02/05 11:10:44;;;;;;;14.32;4.55;;;11.50;99.90;;;;;;4973993;28;20453;-68
2024/02/05 11:13:17;;;;;;;16.65;2.92;;;11.60;99.90;;;;;;4975938;28;20030;-68
2024/02/05 11:15:44;;;;;;;17.00;3.25;;;11.40;99.90;;;;;;4975021;28;20445;-68
2024/02/05 11:18:38;;;;;;;13.05;3.28;;;11.30;99.90;;;;;;4974765;28;20045;-68
2024/02/05 11:21:06;;;;;;;9.02;2.70;;;11.30;99.90;;;;;;4972140;28;20137;-67
2024/02/05 11:23:33;;;;;;;15.15;3.67;;;11.20;99.90;;;;;;4973712;28;20193;-73
2024/02/05 11:26:00;;;;;;;9.15;2.65;;;11.30;99.90;;;;;;4974669;28;20520;-67
2024/02/05 11:28:27;;;;;;;13.38;2.97;;;11.30;99.90;;;;;;4975823;28;20826;-67
2024/02/05 11:31:00;;;;;;;10.88;2.83;;;11.40;99.90;;;;;;4975859;28;20038;-68
2024/02/05 11:33:29;;;;;;;8.95;2.42;;;11.50;99.90;;;;;;4971023;28;20029;-68
2024/02/05 11:35:56;;;;;;;19.38;3.55;;;11.50;99.90;;;;;;4975213;28;20027;-68
2024/02/05 11:38:22;;;;;;;17.90;3.00;;;11.50;99.90;;;;;;4972585;28;20580;-72
2024/02/05 11:40:52;;;;;;;14.85;3.00;;;11.30;99.90;;;;;;4975530;28;20033;-72
2024/02/05 11:43:26;;;;;;;11.93;2.75;;;11.40;99.90;;;;;;4976894;28;20037;-72
2024/02/05 11:45:55;;;;;;;19.85;4.13;;;11.30;99.90;;;;;;4977756;28;20682;-72
2024/02/05 11:48:21;;;;;;;13.73;3.35;;;11.20;99.90;;;;;;4976277;28;20502;-73
2024/02/05 11:50:48;;;;;;;10.38;2.78;;;11.20;99.90;;;;;;4971924;28;20026;-73
2024/02/05 11:53:15;;;;;;;10.27;3.08;;;11.20;99.90;;;;;;4975669;28;20037;-72
2024/02/05 11:55:42;;;;;;;9.23;2.88;;;11.20;99.90;;;;;;4971975;28;20783;-73
2024/02/05 11:58:08;;;;;;;13.55;3.28;;;11.30;99.90;;;;;;4973178;28;20035;-73
2024/02/05 12:00:34;;;;;;;21.40;3.95;;;11.40;99.90;;;;;;4973753;28;20513;-73
2024/02/05 12:03:00;;;;;;;19.98;2.92;;;11.50;99.90;;;;;;4976934;28;20039;-73
2024/02/05 12:05:26;;;;;;;12.82;3.08;;;11.40;99.90;;;;;;4975625;28;20145;-71
2024/02/05 12:07:54;;;;;;;19.65;4.60;;;11.40;99.90;;;;;;4976873;28;20041;-73
2024/02/05 12:10:21;;;;;;;14.32;3.85;;;11.40;99.90;;;;;;4972010;28;20495;-72
2024/02/05 12:12:46;;;;;;;8.20;2.88;;;11.30;99.90;;;;;;4973951;28;20019;-72
2024/02/05 12:15:25;;;;;;;15.13;3.45;;;11.30;99.90;;;;;;4975388;28;20080;-72
2024/02/05 12:17:59;;;;;;;16.67;2.80;;;11.30;99.90;;;;;;4971605;28;20035;-71
2024/02/05 12:20:26;;;;;;;16.90;3.38;;;11.40;99.90;;;;;;4971555;28;20058;-73
2024/02/05 12:22:53;;;;;;;9.90;2.97;;;11.30;99.90;;;;;;4975544;28;20030;-71
2024/02/05 12:25:20;;;;;;;9.45;2.95;;;11.40;99.90;;;;;;4974265;28;20113;-73
2024/02/05 12:27:47;;;;;;;18.70;3.85;;;11.40;99.90;;;;;;4974227;28;20039;-72
2024/02/05 12:30:13;;;;;;;17.15;3.35;;;11.30;99.90;;;;;;4973445;28;20030;-73
2024/02/05 12:32:40;;;;;;;9.38;3.08;;;11.30;99.90;;;;;;4976383;28;20119;-72
2024/02/05 12:35:06;;;;;;;20.90;3.30;;;11.30;99.90;;;;;;4974548;28;20034;-74
2024/02/05 12:37:33;;;;;;;9.13;2.60;;;11.30;99.90;;;;;;4973218;28;20034;-67
2024/02/05 12:39:58;;;;;;;13.23;3.03;;;11.40;99.90;;;;;;4974287;28;20050;-67
2024/02/05 12:42:27;;;;;;;17.15;3.22;;;11.30;99.90;;;;;;4972530;28;20035;-67